createdAt,value
2022-12-16T00:02:29.968Z,99.90
2022-12-16T00:05:32.288Z,99.90
2022-12-16T00:08:37.073Z,99.90
2022-12-16T00:11:38.978Z,99.90
2022-12-16T00:14:41.540Z,99.90
2022-12-16T00:17:43.624Z,99.90
2022-12-16T00:20:47.054Z,99.90
2022-12-16T00:23:49.214Z,99.90
2022-12-16T00:26:51.429Z,99.90
2022-12-16T00:29:53.948Z,99.90
2022-12-16T00:32:55.923Z,99.90
2022-12-16T00:35:57.972Z,99.90
2022-12-16T00:38:59.943Z,99.90
2022-12-16T00:42:01.953Z,99.90
2022-12-16T00:45:04.905Z,99.90
2022-12-16T00:48:07.830Z,99.90
2022-12-16T00:51:09.913Z,99.90
2022-12-16T00:54:11.981Z,99.90
2022-12-16T00:57:13.996Z,99.90
2022-12-16T01:00:19.155Z,99.90
2022-12-16T01:03:22.176Z,99.90
2022-12-16T01:06:25.290Z,99.90
2022-12-16T01:09:27.330Z,99.90
2022-12-16T01:12:29.373Z,99.90
2022-12-16T01:15:31.372Z,99.90
2022-12-16T01:18:33.656Z,99.90
2022-12-16T01:21:35.977Z,99.90
2022-12-16T01:24:38.610Z,99.90
2022-12-16T01:27:40.882Z,99.90
2022-12-16T01:30:43.143Z,99.90
2022-12-16T01:33:45.544Z,99.90
2022-12-16T01:36:47.611Z,99.90
2022-12-16T01:39:49.675Z,99.90
2022-12-16T01:42:52.632Z,99.90
2022-12-16T01:46:04.022Z,99.90
2022-12-16T01:49:15.189Z,99.90
2022-12-16T01:52:21.915Z,99.90
2022-12-16T01:55:38.899Z,99.90
2022-12-16T01:58:42.438Z,99.90
2022-12-16T02:01:44.572Z,99.90
2022-12-16T02:05:05.164Z,99.90
2022-12-16T02:08:09.968Z,99.90
2022-12-16T02:11:30.459Z,99.90
2022-12-16T02:14:55.101Z,99.90
2022-12-16T02:17:57.484Z,99.90
2022-12-16T02:21:11.554Z,99.90
2022-12-16T02:24:44.470Z,99.90
2022-12-16T02:28:43.406Z,99.90
2022-12-16T02:31:59.230Z,99.90
2022-12-16T02:35:14.341Z,99.90
2022-12-16T02:38:22.697Z,99.90
2022-12-16T02:41:42.508Z,99.90
2022-12-16T02:45:05.274Z,99.90
2022-12-16T02:48:07.472Z,99.90
2022-12-16T02:51:11.040Z,99.90
2022-12-16T02:54:14.861Z,99.90
2022-12-16T02:57:45.017Z,99.90
2022-12-16T03:01:17.634Z,99.90
2022-12-16T03:04:27.526Z,99.90
2022-12-16T03:07:34.085Z,99.90
2022-12-16T03:10:46.953Z,99.90
2022-12-16T03:13:54.076Z,99.90
2022-12-16T03:16:58.372Z,99.90
2022-12-16T03:20:12.631Z,99.90
2022-12-16T03:23:22.905Z,99.90
2022-12-16T03:26:34.635Z,99.90
2022-12-16T03:29:52.514Z,99.90
2022-12-16T03:33:00.465Z,99.90
2022-12-16T03:36:22.265Z,99.90
2022-12-16T03:39:27.252Z,99.90
2022-12-16T03:42:29.691Z,99.90
2022-12-16T03:45:37.881Z,99.90
2022-12-16T03:48:46.651Z,99.90
2022-12-16T03:51:49.188Z,99.90
2022-12-16T03:54:51.239Z,99.90
2022-12-16T03:57:54.591Z,99.90
2022-12-16T04:00:56.589Z,99.90
2022-12-16T04:03:58.701Z,99.90
2022-12-16T04:07:19.239Z,99.90
2022-12-16T04:10:41.203Z,99.90
2022-12-16T04:14:07.963Z,99.90
2022-12-16T04:17:31.702Z,99.90
2022-12-16T04:20:56.473Z,99.90
2022-12-16T04:24:17.463Z,99.90
2022-12-16T04:27:25.715Z,99.90
2022-12-16T04:30:30.573Z,99.90
2022-12-16T04:33:51.576Z,99.90
2022-12-16T04:37:14.663Z,99.90
2022-12-16T04:40:35.195Z,99.90
2022-12-16T04:43:55.955Z,99.90
2022-12-16T04:47:16.646Z,99.90
2022-12-16T04:50:38.415Z,99.90
2022-12-16T04:53:59.146Z,99.90
2022-12-16T04:57:19.927Z,99.90
2022-12-16T05:00:40.627Z,99.90
2022-12-16T05:04:03.169Z,99.90
2022-12-16T05:07:24.099Z,99.90
2022-12-16T05:10:44.678Z,99.90
2022-12-16T05:14:05.208Z,99.90
2022-12-16T05:17:25.963Z,99.90
2022-12-16T05:20:46.559Z,99.90
2022-12-16T05:24:07.266Z,99.90
2022-12-16T05:27:41.738Z,99.90
2022-12-16T05:31:02.422Z,99.90
2022-12-16T05:34:23.147Z,99.90
2022-12-16T05:37:43.789Z,99.90
2022-12-16T05:41:04.366Z,99.90
2022-12-16T05:44:25.111Z,99.90
2022-12-16T05:47:46.516Z,99.90
2022-12-16T05:51:07.303Z,99.90
2022-12-16T05:54:28.088Z,99.90
2022-12-16T05:57:48.883Z,99.90
2022-12-16T06:01:09.560Z,99.90
2022-12-16T06:04:30.283Z,99.90
2022-12-16T06:07:50.886Z,99.90
2022-12-16T06:11:11.621Z,99.90
2022-12-16T06:14:32.118Z,99.90
2022-12-16T06:17:52.716Z,99.90
2022-12-16T06:21:13.532Z,99.90
2022-12-16T06:24:34.435Z,99.90
2022-12-16T06:27:55.181Z,99.90
2022-12-16T06:31:15.745Z,99.90
2022-12-16T06:34:36.505Z,99.90
2022-12-16T06:37:57.326Z,99.90
2022-12-16T06:41:18.073Z,99.90
2022-12-16T06:44:38.785Z,99.90
2022-12-16T06:48:01.978Z,99.90
2022-12-16T06:51:22.819Z,99.90
2022-12-16T06:54:43.493Z,99.90
2022-12-16T06:58:09.957Z,99.90
2022-12-16T07:01:30.744Z,99.90
2022-12-16T07:04:51.592Z,99.90
2022-12-16T07:08:13.632Z,99.90
2022-12-16T07:11:42.151Z,99.90
2022-12-16T07:15:02.957Z,99.90
2022-12-16T07:18:23.620Z,99.90
2022-12-16T07:21:44.191Z,99.90
2022-12-16T07:25:04.839Z,99.90
2022-12-16T07:28:25.661Z,99.90
2022-12-16T07:31:46.410Z,99.90
2022-12-16T07:35:07.042Z,99.90
2022-12-16T07:38:27.807Z,99.90
2022-12-16T07:41:48.513Z,99.90
2022-12-16T07:45:09.281Z,99.90
2022-12-16T07:48:29.983Z,99.90
2022-12-16T07:51:54.006Z,99.90
2022-12-16T07:55:16.473Z,99.90
2022-12-16T07:58:37.164Z,99.90
2022-12-16T08:01:58.067Z,99.90
2022-12-16T08:05:18.737Z,99.90
2022-12-16T08:08:39.388Z,99.90
2022-12-16T08:11:59.950Z,99.90
2022-12-16T08:15:20.577Z,99.90
2022-12-16T08:18:51.927Z,99.90
2022-12-16T08:22:13.460Z,99.90
2022-12-16T08:25:34.293Z,99.90
2022-12-16T08:28:54.918Z,99.90
2022-12-16T08:32:15.544Z,99.90
2022-12-16T08:35:36.162Z,99.90
2022-12-16T08:38:56.858Z,99.90
2022-12-16T08:42:17.236Z,99.90
2022-12-16T08:45:38.129Z,99.90
2022-12-16T08:48:59.809Z,99.90
2022-12-16T08:52:20.382Z,99.90
2022-12-16T08:55:40.820Z,99.90
2022-12-16T08:59:01.631Z,99.90
2022-12-16T09:02:33.912Z,99.90
2022-12-16T09:06:06.944Z,99.90
2022-12-16T09:09:29.497Z,99.90
2022-12-16T09:12:50.663Z,99.90
2022-12-16T09:16:15.830Z,99.90
2022-12-16T09:19:38.085Z,99.90
2022-12-16T09:23:04.048Z,99.90
2022-12-16T09:26:33.884Z,99.90
2022-12-16T09:29:56.626Z,99.90
2022-12-16T09:33:17.238Z,99.90
2022-12-16T09:36:37.953Z,99.90
2022-12-16T09:39:58.655Z,99.90
2022-12-16T09:43:46.500Z,99.90
2022-12-16T09:47:23.431Z,99.90
2022-12-16T09:50:48.733Z,99.90
2022-12-16T09:54:14.773Z,99.90
2022-12-16T09:57:35.989Z,99.90
2022-12-16T10:01:13.319Z,99.90
2022-12-16T10:04:35.771Z,99.90
2022-12-16T10:08:49.272Z,99.90
2022-12-16T10:12:24.376Z,99.90
2022-12-16T10:15:48.258Z,99.90
2022-12-16T10:19:20.623Z,96.50
2022-12-16T10:23:30.420Z,95.70
2022-12-16T10:27:21.046Z,94.20
2022-12-16T10:30:41.799Z,92.70
2022-12-16T10:34:05.589Z,90.20
2022-12-16T10:37:34.604Z,88.50
2022-12-16T10:40:55.525Z,81.90
2022-12-16T10:44:17.776Z,80.30
2022-12-16T10:47:39.002Z,78.80
2022-12-16T10:50:59.785Z,78.10
2022-12-16T10:54:41.621Z,83.30
2022-12-16T10:58:11.979Z,80.30
2022-12-16T11:01:47.022Z,77.30
2022-12-16T11:05:08.613Z,76.70
2022-12-16T11:08:55.515Z,74.80
2022-12-16T11:12:40.066Z,72.40
2022-12-16T11:16:00.776Z,71.00
2022-12-16T11:19:21.700Z,73.10
2022-12-16T11:22:42.548Z,72.10
2022-12-16T11:26:03.185Z,76.90
2022-12-16T11:29:31.454Z,73.00
2022-12-16T11:32:52.888Z,75.50
2022-12-16T11:36:30.429Z,76.40
2022-12-16T11:39:52.280Z,75.60
2022-12-16T11:43:16.894Z,76.00
2022-12-16T11:46:45.863Z,75.30
2022-12-16T11:50:06.442Z,72.00
2022-12-16T11:53:55.682Z,73.00
2022-12-16T11:57:18.890Z,75.90
2022-12-16T12:00:39.504Z,79.60
2022-12-16T12:04:03.017Z,83.40
2022-12-16T12:07:48.711Z,86.20
2022-12-16T12:11:09.631Z,90.40
2022-12-16T12:14:58.111Z,91.40
2022-12-16T12:18:31.778Z,92.50
2022-12-16T12:22:30.126Z,93.30
2022-12-16T12:26:10.088Z,93.80
2022-12-16T12:29:51.195Z,94.70
2022-12-16T12:33:48.337Z,95.00
2022-12-16T12:37:27.416Z,95.80
2022-12-16T12:41:13.628Z,95.80
2022-12-16T12:44:50.101Z,95.90
2022-12-16T12:48:21.544Z,95.70
2022-12-16T12:52:01.001Z,95.90
2022-12-16T12:55:49.908Z,96.50
2022-12-16T12:59:14.056Z,96.60
2022-12-16T13:02:39.804Z,97.40
2022-12-16T13:06:00.878Z,97.50
2022-12-16T13:09:22.665Z,97.50
2022-12-16T13:12:51.689Z,97.50
2022-12-16T13:16:13.049Z,97.50
2022-12-16T13:19:48.626Z,97.70
2022-12-16T13:23:09.245Z,98.50
2022-12-16T13:26:29.946Z,98.60
2022-12-16T13:29:50.960Z,98.30
2022-12-16T13:33:42.359Z,98.70
2022-12-16T13:37:12.067Z,98.90
2022-12-16T13:40:38.361Z,99.00
2022-12-16T13:44:09.700Z,98.90
2022-12-16T13:48:12.566Z,99.00
2022-12-16T13:51:58.172Z,99.10
2022-12-16T13:55:30.020Z,99.00
2022-12-16T13:59:04.031Z,98.70
2022-12-16T14:02:50.020Z,98.90
2022-12-16T14:06:24.157Z,99.10
2022-12-16T14:10:03.149Z,99.20
2022-12-16T14:13:36.232Z,99.50
2022-12-16T14:17:20.369Z,99.90
2022-12-16T14:20:59.131Z,99.70
2022-12-16T14:24:29.154Z,99.80
2022-12-16T14:27:53.025Z,99.80
2022-12-16T14:31:24.461Z,99.80
2022-12-16T14:34:55.287Z,99.90
2022-12-16T14:38:16.981Z,99.90
2022-12-16T14:41:42.127Z,99.90
2022-12-16T14:45:26.308Z,99.90
2022-12-16T14:48:57.669Z,99.90
2022-12-16T14:52:18.605Z,99.90
2022-12-16T14:55:48.240Z,99.90
2022-12-16T14:59:31.463Z,99.90
2022-12-16T15:03:02.610Z,99.50
2022-12-16T15:06:29.631Z,99.80
2022-12-16T15:09:59.290Z,99.90
2022-12-16T15:13:20.078Z,99.90
2022-12-16T15:16:46.877Z,99.90
2022-12-16T15:20:12.133Z,99.90
2022-12-16T15:23:41.465Z,99.90
2022-12-16T15:27:03.155Z,99.90
2022-12-16T15:31:02.240Z,99.90
2022-12-16T15:34:45.981Z,99.90
2022-12-16T15:38:06.655Z,99.90
2022-12-16T15:41:45.519Z,99.90
2022-12-16T15:45:08.756Z,99.90
2022-12-16T15:48:42.601Z,99.90
2022-12-16T15:52:07.773Z,99.90
2022-12-16T15:55:51.410Z,99.90
2022-12-16T15:59:45.761Z,99.90
2022-12-16T16:03:08.211Z,99.90
2022-12-16T16:06:43.222Z,99.90
2022-12-16T16:10:04.154Z,99.90
2022-12-16T16:13:25.298Z,99.90
2022-12-16T16:16:46.016Z,99.90
2022-12-16T16:20:06.836Z,99.90
2022-12-16T16:23:28.988Z,99.90
2022-12-16T16:26:49.796Z,99.90
2022-12-16T16:30:10.594Z,99.90
2022-12-16T16:33:31.119Z,99.90
2022-12-16T16:36:51.825Z,99.90
2022-12-16T16:40:12.738Z,99.90
2022-12-16T16:43:33.643Z,99.90
2022-12-16T16:47:00.599Z,99.90
2022-12-16T16:50:21.723Z,99.90
2022-12-16T16:53:42.507Z,99.90
2022-12-16T16:57:03.290Z,99.90
2022-12-16T17:00:24.398Z,99.90
2022-12-16T17:03:45.289Z,99.90
2022-12-16T17:07:06.359Z,99.90
2022-12-16T17:10:28.151Z,99.90
2022-12-16T17:13:48.726Z,99.90
2022-12-16T17:17:09.397Z,99.90
2022-12-16T17:20:35.692Z,99.90
2022-12-16T17:23:56.238Z,99.90
2022-12-16T17:27:17.054Z,99.90
2022-12-16T17:30:46.941Z,99.90
2022-12-16T17:34:07.908Z,99.90
2022-12-16T17:37:28.558Z,99.90
2022-12-16T17:40:49.455Z,99.90
2022-12-16T17:44:11.646Z,99.90
2022-12-16T17:47:32.411Z,99.90
2022-12-16T17:50:53.167Z,99.90
2022-12-16T17:54:21.633Z,99.90
2022-12-16T17:57:44.446Z,99.90
2022-12-16T18:01:05.092Z,99.90
2022-12-16T18:04:26.705Z,99.90
2022-12-16T18:07:47.402Z,99.90
2022-12-16T18:11:12.068Z,99.90
2022-12-16T18:14:32.628Z,99.90
2022-12-16T18:17:53.517Z,99.90
2022-12-16T18:21:13.890Z,99.90
2022-12-16T18:24:34.757Z,99.90
2022-12-16T18:27:55.427Z,99.90
2022-12-16T18:31:16.113Z,99.90
2022-12-16T18:34:36.834Z,99.90
2022-12-16T18:37:57.832Z,99.90
2022-12-16T18:41:22.878Z,99.90
2022-12-16T18:44:57.686Z,99.90
2022-12-16T18:48:21.462Z,99.90
2022-12-16T18:51:42.687Z,99.90
2022-12-16T18:55:03.399Z,99.90
2022-12-16T19:02:04.756Z,99.90
2022-12-16T19:05:25.940Z,99.90
2022-12-16T19:08:48.651Z,99.90
2022-12-16T19:12:09.330Z,99.90
2022-12-16T19:15:30.944Z,99.90
2022-12-16T19:18:52.828Z,99.90
2022-12-16T19:22:16.690Z,99.90
2022-12-16T19:25:37.548Z,99.90
2022-12-16T19:28:58.218Z,99.90
2022-12-16T19:32:25.296Z,99.90
2022-12-16T19:35:46.004Z,99.90
2022-12-16T19:39:06.822Z,99.90
2022-12-16T19:42:27.580Z,99.90
2022-12-16T19:45:49.337Z,99.90
2022-12-16T19:49:10.076Z,99.90
2022-12-16T19:52:31.081Z,99.90
2022-12-16T19:55:51.847Z,99.90
2022-12-16T19:59:14.277Z,99.90
2022-12-16T20:02:35.536Z,99.90
2022-12-16T20:05:56.101Z,99.90
2022-12-16T20:09:16.805Z,99.90
2022-12-16T20:12:37.526Z,99.90
2022-12-16T20:15:58.270Z,99.90
2022-12-16T20:19:19.083Z,99.90
2022-12-16T20:22:39.721Z,99.90
2022-12-16T20:26:00.440Z,99.90
2022-12-16T20:29:21.174Z,99.90
2022-12-16T20:32:41.918Z,99.90
2022-12-16T20:36:02.581Z,99.90
2022-12-16T20:39:23.210Z,99.90
2022-12-16T20:42:44.878Z,99.90
2022-12-16T20:46:05.569Z,99.90
2022-12-16T20:49:25.922Z,99.90
2022-12-16T20:52:46.842Z,99.90
2022-12-16T20:56:07.491Z,99.90
2022-12-16T20:59:28.302Z,99.90
2022-12-16T21:02:49.077Z,99.90
2022-12-16T21:06:09.656Z,99.90
2022-12-16T21:09:30.262Z,99.90
2022-12-16T21:12:50.925Z,99.90
2022-12-16T21:16:12.039Z,99.90
2022-12-16T21:19:36.280Z,99.90
2022-12-16T21:22:56.979Z,99.90
2022-12-16T21:26:18.495Z,99.90
2022-12-16T21:29:39.148Z,99.90
2022-12-16T21:33:15.919Z,99.90
2022-12-16T21:36:38.517Z,99.90
2022-12-16T21:39:59.182Z,99.90
2022-12-16T21:43:20.047Z,99.90
2022-12-16T21:46:40.769Z,99.90
2022-12-16T21:50:01.695Z,99.90
2022-12-16T21:53:22.463Z,99.90
2022-12-16T21:56:43.140Z,99.90
2022-12-16T22:00:03.381Z,99.90
2022-12-16T22:03:24.040Z,99.90
2022-12-16T22:10:29.037Z,99.90
2022-12-16T22:13:50.283Z,99.90
2022-12-16T22:17:10.992Z,99.90
2022-12-16T22:20:31.708Z,99.90
2022-12-16T22:23:52.528Z,99.90
2022-12-16T22:27:16.932Z,99.90
2022-12-16T22:30:37.765Z,99.90
2022-12-16T22:33:58.531Z,99.90
2022-12-16T22:37:18.912Z,99.90
2022-12-16T22:40:39.512Z,99.90
2022-12-16T22:44:01.168Z,99.90
2022-12-16T22:47:21.861Z,99.90
2022-12-16T22:50:44.140Z,99.90
2022-12-16T22:54:07.277Z,99.90
2022-12-16T22:57:29.064Z,99.90
2022-12-16T23:00:49.824Z,99.90
2022-12-16T23:04:10.602Z,99.90
2022-12-16T23:07:31.479Z,99.90
2022-12-16T23:11:00.380Z,99.90
2022-12-16T23:14:20.884Z,99.90
2022-12-16T23:17:41.564Z,99.90
2022-12-16T23:21:06.736Z,99.90
2022-12-16T23:24:28.934Z,99.90
2022-12-16T23:27:49.406Z,99.90
2022-12-16T23:31:15.125Z,99.90
2022-12-16T23:34:36.759Z,99.90
2022-12-16T23:37:58.197Z,99.90
2022-12-16T23:41:19.085Z,99.90
2022-12-16T23:44:39.676Z,99.90
2022-12-16T23:48:00.190Z,99.90
2022-12-16T23:51:20.990Z,99.90
2022-12-16T23:54:41.580Z,99.90
2022-12-16T23:58:02.064Z,99.90
